Time;durP1;ratioP1;P1;durP2;ratioP2;P2;SDS_P1;SDS_P2;PMS_P1;PMS_P2;Temp;Humidity;BMP_temperature;BMP_pressure;BME280_temperature;BME280_humidity;BME280_pressure;Samples;Min_cycle;Max_cycle;Signal;HPM_P1;HPM_P2
2021/03/14 00:01:21;;;;;;;;;;;17.60;99.90;;;;;;5000951;28;19898;-80
2021/03/14 00:03:50;;;;;;;;;;;17.60;99.90;;;;;;4998016;28;20341;-80
2021/03/14 00:06:17;;;;;;;;;;;17.70;99.90;;;;;;4995093;28;20272;-85
2021/03/14 00:08:43;;;;;;;;;;;17.70;99.90;;;;;;4990440;28;20367;-82
2021/03/14 00:11:10;;;;;;;;;;;17.70;99.90;;;;;;4989457;28;19960;-83
2021/03/14 00:13:38;;;;;;;;;;;17.70;99.90;;;;;;4997524;28;19918;-82
2021/03/14 00:16:06;;;;;;;;;;;17.60;99.90;;;;;;4997182;28;19909;-78
2021/03/14 00:18:34;;;;;;;;;;;17.60;99.90;;;;;;5003577;28;19905;-80
2021/03/14 00:21:01;;;;;;;;;;;17.60;99.90;;;;;;5017154;28;19906;-87
2021/03/14 00:23:27;;;;;;;;;;;17.60;99.90;;;;;;4994874;28;19914;-84
2021/03/14 00:25:55;;;;;;;;;;;17.60;99.90;;;;;;4994903;28;19956;-78
2021/03/14 00:28:22;;;;;;;;;;;17.60;99.90;;;;;;4988195;28;20283;-81
2021/03/14 00:30:49;;;;;;;;;;;17.60;99.90;;;;;;4984284;28;19993;-78
2021/03/14 00:33:16;;;;;;;;;;;17.40;99.90;;;;;;4991581;28;19951;-83
2021/03/14 00:35:43;;;;;;;;;;;17.30;99.90;;;;;;4993401;28;19913;-83
2021/03/14 00:38:09;;;;;;;;;;;17.40;99.90;;;;;;4994843;28;19914;-79
2021/03/14 00:40:36;;;;;;;;;;;17.40;99.90;;;;;;4993693;28;19921;-79
2021/03/14 00:43:05;;;;;;;;;;;17.50;99.90;;;;;;4995084;28;19917;-87
2021/03/14 00:45:32;;;;;;;;;;;17.30;99.90;;;;;;4994991;28;19909;-83
2021/03/14 00:48:03;;;;;;;;;;;17.20;99.90;;;;;;4991712;28;19945;-78
2021/03/14 00:50:32;;;;;;;;;;;17.20;99.90;;;;;;4982379;28;20400;-85
2021/03/14 00:52:59;;;;;;;;;;;17.20;99.90;;;;;;4975260;28;19918;-83
2021/03/14 00:55:25;;;;;;;;;;;17.20;99.90;;;;;;4975620;28;19922;-84
2021/03/14 00:57:52;;;;;;;;;;;17.20;99.90;;;;;;4975873;28;19911;-86
2021/03/14 01:00:19;;;;;;;;;;;17.20;99.90;;;;;;4975418;28;19911;-83
2021/03/14 01:02:46;;;;;;;;;;;17.20;99.90;;;;;;4974862;28;19910;-82
2021/03/14 01:05:13;;;;;;;;;;;17.20;99.90;;;;;;4974469;28;20365;-77
2021/03/14 01:07:39;;;;;;;;;;;17.20;99.90;;;;;;4982909;28;19914;-80
2021/03/14 01:10:07;;;;;;;;;;;17.30;99.90;;;;;;5006842;28;19910;-80
2021/03/14 01:12:33;;;;;;;;;;;17.30;99.90;;;;;;4987932;28;19917;-83
2021/03/14 01:15:00;;;;;;;;;;;17.30;99.90;;;;;;4976472;28;19925;-83
2021/03/14 01:17:27;;;;;;;;;;;17.30;99.90;;;;;;4988677;28;20053;-80
2021/03/14 01:19:53;;;;;;;;;;;17.20;99.90;;;;;;4995357;28;19909;-80
2021/03/14 01:22:20;;;;;;;;;;;17.20;99.90;;;;;;4993549;28;19932;-81
2021/03/14 01:24:47;;;;;;;;;;;17.20;99.90;;;;;;4994567;28;19914;-76
2021/03/14 01:27:13;;;;;;;;;;;17.30;99.90;;;;;;4990368;28;19909;-81
2021/03/14 01:29:40;;;;;;;;;;;17.30;99.90;;;;;;4990179;28;19913;-83
2021/03/14 01:32:07;;;;;;;;;;;17.20;99.90;;;;;;4991634;28;20286;-77
2021/03/14 01:34:36;;;;;;;;;;;17.20;99.90;;;;;;4997028;28;19902;-79
2021/03/14 01:37:04;;;;;;;;;;;17.10;99.90;;;;;;4979002;28;19967;-84
2021/03/14 01:39:30;;;;;;;;;;;17.20;99.90;;;;;;4971216;28;19914;-83
2021/03/14 01:41:57;;;;;;;;;;;17.20;99.90;;;;;;4971792;28;19917;-80
2021/03/14 01:44:24;;;;;;;;;;;17.10;99.90;;;;;;4971848;28;19965;-82
2021/03/14 01:46:50;;;;;;;;;;;17.00;99.90;;;;;;4972162;28;19957;-85
2021/03/14 01:49:17;;;;;;;;;;;17.00;99.90;;;;;;4970062;28;19914;-79
2021/03/14 01:51:44;;;;;;;;;;;17.10;99.90;;;;;;4971083;28;20367;-84
2021/03/14 01:54:11;;;;;;;;;;;17.10;99.90;;;;;;4970764;28;19922;-81
2021/03/14 01:56:37;;;;;;;;;;;17.10;99.90;;;;;;4971003;28;19910;-82
2021/03/14 01:59:04;;;;;;;;;;;17.10;99.90;;;;;;4972838;28;19918;-80
2021/03/14 02:01:31;;;;;;;;;;;17.10;99.90;;;;;;4970911;28;19914;-82
2021/03/14 02:03:58;;;;;;;;;;;17.10;99.90;;;;;;4972299;28;19910;-80
2021/03/14 02:06:25;;;;;;;;;;;17.10;99.90;;;;;;4973126;28;19914;-82
2021/03/14 02:08:52;;;;;;;;;;;17.10;99.90;;;;;;4977224;28;19921;-80
2021/03/14 02:11:20;;;;;;;;;;;17.00;99.90;;;;;;4972479;28;19933;-79
2021/03/14 02:13:48;;;;;;;;;;;17.00;99.90;;;;;;4972956;28;19922;-80
2021/03/14 02:16:20;;;;;;;;;;;17.00;99.90;;;;;;4971351;28;19914;-80
2021/03/14 02:18:51;;;;;;;;;;;17.00;99.90;;;;;;4971282;28;19969;-80
2021/03/14 02:21:19;;;;;;;;;;;17.00;99.90;;;;;;4971133;28;19920;-83
2021/03/14 02:24:00;;;;;;;;;;;17.00;99.90;;;;;;4972565;28;19964;-79
2021/03/14 02:26:30;;;;;;;;;;;17.00;99.90;;;;;;4974203;28;20264;-78
2021/03/14 02:28:56;;;;;;;;;;;17.00;99.90;;;;;;4974177;28;20357;-77
2021/03/14 02:31:24;;;;;;;;;;;16.90;99.90;;;;;;4974465;28;20293;-78
2021/03/14 02:33:55;;;;;;;;;;;16.90;99.90;;;;;;4976314;28;20300;-84
2021/03/14 02:36:22;;;;;;;;;;;16.70;99.90;;;;;;4976100;28;19925;-82
2021/03/14 02:38:50;;;;;;;;;;;16.70;99.90;;;;;;4976327;28;19961;-83
2021/03/14 02:41:17;;;;;;;;;;;16.70;99.90;;;;;;4974991;28;19914;-85
2021/03/14 02:43:44;;;;;;;;;;;16.70;99.90;;;;;;4974646;28;19918;-85
2021/03/14 02:46:10;;;;;;;;;;;16.70;99.90;;;;;;4974167;28;19911;-83
2021/03/14 02:48:38;;;;;;;;;;;16.70;99.90;;;;;;4975579;28;19921;-83
2021/03/14 02:51:05;;;;;;;;;;;16.70;99.90;;;;;;4976026;28;19937;-81
2021/03/14 02:53:32;;;;;;;;;;;16.70;99.90;;;;;;4975534;28;19950;-80
2021/03/14 02:55:59;;;;;;;;;;;16.80;99.90;;;;;;4975750;28;19921;-87
2021/03/14 02:58:26;;;;;;;;;;;16.70;99.90;;;;;;4975481;28;19953;-80
2021/03/14 03:00:53;;;;;;;;;;;16.70;99.90;;;;;;4976377;28;19946;-79
2021/03/14 03:03:21;;;;;;;;;;;16.70;99.90;;;;;;4976722;28;19910;-81
2021/03/14 03:05:48;;;;;;;;;;;16.60;99.90;;;;;;4977563;28;20033;-80
2021/03/14 03:08:17;;;;;;;;;;;16.50;99.90;;;;;;4977062;28;20033;-79
2021/03/14 03:10:45;;;;;;;;;;;16.50;99.90;;;;;;4976031;28;20384;-83
2021/03/14 03:13:12;;;;;;;;;;;16.50;99.90;;;;;;4977653;28;19930;-83
2021/03/14 03:15:40;;;;;;;;;;;16.50;99.90;;;;;;4976515;28;19976;-79
2021/03/14 03:18:09;;;;;;;;;;;16.40;99.90;;;;;;4975381;28;19918;-80
2021/03/14 03:20:36;;;;;;;;;;;16.50;99.90;;;;;;4975693;28;19917;-80
2021/03/14 03:23:04;;;;;;;;;;;16.60;99.90;;;;;;4975361;28;20399;-81
2021/03/14 03:25:31;;;;;;;;;;;16.60;99.90;;;;;;4973270;28;20385;-82
2021/03/14 03:27:58;;;;;;;;;;;16.50;99.90;;;;;;4993402;28;19921;-79
2021/03/14 03:30:26;;;;;;;;;;;16.50;99.90;;;;;;4993935;28;20020;-79
2021/03/14 03:32:53;;;;;;;;;;;16.50;99.90;;;;;;4990515;28;20357;-81
2021/03/14 03:35:20;;;;;;;;;;;16.50;99.90;;;;;;4981550;28;20009;-80
2021/03/14 03:37:48;;;;;;;;;;;16.50;99.90;;;;;;4983454;28;19922;-78
2021/03/14 03:40:20;;;;;;;;;;;16.50;99.90;;;;;;4978217;28;19944;-81
2021/03/14 03:42:47;;;;;;;;;;;16.50;99.90;;;;;;4984010;28;19949;-79
2021/03/14 03:45:15;;;;;;;;;;;16.50;99.90;;;;;;4981828;28;20342;-79
2021/03/14 03:47:45;;;;;;;;;;;16.50;99.90;;;;;;4993902;28;20292;-78
2021/03/14 03:50:13;;;;;;;;;;;16.50;99.90;;;;;;5012274;28;20000;-82
2021/03/14 03:52:42;;;;;;;;;;;16.50;99.90;;;;;;4993744;28;20008;-80
2021/03/14 03:55:09;;;;;;;;;;;16.40;99.90;;;;;;4987753;28;19913;-79
2021/03/14 03:57:37;;;;;;;;;;;16.40;99.90;;;;;;4983419;28;19914;-78
2021/03/14 04:00:10;;;;;;;;;;;16.30;99.90;;;;;;4984072;28;19917;-80
2021/03/14 04:02:37;;;;;;;;;;;16.20;99.90;;;;;;4985922;28;19933;-80
2021/03/14 04:05:10;;;;;;;;;;;16.30;99.90;;;;;;4992025;28;20294;-79
2021/03/14 04:07:38;;;;;;;;;;;16.20;99.90;;;;;;4991901;28;19958;-80
2021/03/14 04:10:07;;;;;;;;;;;16.30;99.90;;;;;;4991965;28;20376;-81
2021/03/14 04:12:34;;;;;;;;;;;16.30;99.90;;;;;;4993133;28;19941;-82
2021/03/14 04:15:01;;;;;;;;;;;16.40;99.90;;;;;;4994759;28;19910;-78
2021/03/14 04:17:28;;;;;;;;;;;16.40;99.90;;;;;;4991787;28;20364;-84
2021/03/14 04:19:56;;;;;;;;;;;16.30;99.90;;;;;;4993391;28;19910;-85
2021/03/14 04:22:23;;;;;;;;;;;16.30;99.90;;;;;;4994518;28;19914;-80
2021/03/14 04:24:50;;;;;;;;;;;16.20;99.90;;;;;;4992294;28;19925;-84
2021/03/14 04:27:20;;;;;;;;;;;16.10;99.90;;;;;;4993166;28;19913;-81
2021/03/14 04:29:47;;;;;;;;;;;15.90;99.90;;;;;;4985096;28;19929;-82
2021/03/14 04:32:14;;;;;;;;;;;15.90;99.90;;;;;;4991616;28;19918;-79
2021/03/14 04:34:42;;;;;;;;;;;15.80;99.90;;;;;;4983533;28;19918;-80
2021/03/14 04:37:09;;;;;;;;;;;15.80;99.90;;;;;;4987406;28;20233;-82
2021/03/14 04:39:36;;;;;;;;;;;15.80;99.90;;;;;;4976106;28;19918;-81
2021/03/14 04:42:07;;;;;;;;;;;15.80;99.90;;;;;;4988006;28;19941;-80
2021/03/14 04:44:35;;;;;;;;;;;15.80;99.90;;;;;;4992312;28;20400;-83
2021/03/14 04:47:03;;;;;;;;;;;15.80;99.90;;;;;;5028559;28;19914;-80
2021/03/14 04:49:30;;;;;;;;;;;15.80;99.90;;;;;;5010797;28;19902;-80
2021/03/14 04:51:57;;;;;;;;;;;15.80;99.90;;;;;;4977699;28;19972;-81
2021/03/14 04:54:24;;;;;;;;;;;15.80;99.90;;;;;;4987557;28;20403;-81
2021/03/14 04:56:55;;;;;;;;;;;15.80;99.90;;;;;;4992151;28;20040;-82
2021/03/14 04:59:22;;;;;;;;;;;15.80;99.90;;;;;;4991996;28;20455;-82
2021/03/14 05:01:50;;;;;;;;;;;15.90;99.90;;;;;;4990747;28;19913;-80
2021/03/14 05:04:18;;;;;;;;;;;15.80;99.90;;;;;;4985988;28;19925;-81
2021/03/14 05:06:45;;;;;;;;;;;15.80;99.90;;;;;;4988352;28;19918;-81
2021/03/14 05:09:16;;;;;;;;;;;15.90;99.90;;;;;;4991725;28;19921;-81
2021/03/14 05:11:43;;;;;;;;;;;15.90;99.90;;;;;;4988759;28;20299;-80
2021/03/14 05:14:11;;;;;;;;;;;15.90;99.90;;;;;;4990192;28;19914;-78
2021/03/14 05:16:39;;;;;;;;;;;15.80;99.90;;;;;;4990151;28;20339;-84
2021/03/14 05:19:07;;;;;;;;;;;15.80;99.90;;;;;;4989184;28;19941;-84
2021/03/14 05:21:34;;;;;;;;;;;15.70;99.90;;;;;;4990644;28;19940;-79
2021/03/14 05:24:01;;;;;;;;;;;15.70;99.90;;;;;;4988070;28;20328;-79
2021/03/14 05:26:28;;;;;;;;;;;15.70;99.90;;;;;;4990395;28;19909;-80
2021/03/14 05:28:57;;;;;;;;;;;15.70;99.90;;;;;;4991095;28;19972;-80
2021/03/14 05:31:31;;;;;;;;;;;15.70;99.90;;;;;;4990553;28;19936;-81
2021/03/14 05:34:01;;;;;;;;;;;15.70;99.90;;;;;;4992230;28;19916;-80
2021/03/14 05:36:28;;;;;;;;;;;15.70;99.90;;;;;;4991796;28;19921;-80
2021/03/14 05:38:55;;;;;;;;;;;15.70;99.90;;;;;;4974457;28;19921;-79
2021/03/14 05:41:26;;;;;;;;;;;15.60;99.90;;;;;;4991936;28;20025;-79
2021/03/14 05:43:52;;;;;;;;;;;15.60;99.90;;;;;;4990416;28;19921;-80
2021/03/14 05:46:22;;;;;;;;;;;15.60;99.90;;;;;;4991783;28;19910;-79
2021/03/14 05:48:49;;;;;;;;;;;15.60;99.90;;;;;;5008082;28;19901;-79
2021/03/14 05:51:21;;;;;;;;;;;15.50;99.90;;;;;;5007961;28;19921;-84
2021/03/14 05:53:50;;;;;;;;;;;15.50;99.90;;;;;;4992149;28;20296;-79
2021/03/14 05:56:17;;;;;;;;;;;15.60;99.90;;;;;;4989668;28;19976;-79
2021/03/14 05:58:46;;;;;;;;;;;15.50;99.90;;;;;;4991936;28;19917;-78
2021/03/14 06:01:16;;;;;;;;;;;15.30;99.90;;;;;;4991968;28;19914;-78
2021/03/14 06:03:43;;;;;;;;;;;15.30;99.90;;;;;;4992178;28;20365;-79
2021/03/14 06:06:14;;;;;;;;;;;15.20;99.90;;;;;;4989587;28;19917;-84
2021/03/14 06:08:41;;;;;;;;;;;15.30;99.90;;;;;;4990162;28;19916;-83
2021/03/14 06:11:09;;;;;;;;;;;15.20;99.90;;;;;;4992396;28;19909;-82
2021/03/14 06:13:35;;;;;;;;;;;15.20;99.90;;;;;;4992403;28;19909;-80
2021/03/14 06:16:02;;;;;;;;;;;15.10;99.90;;;;;;4989876;28;19968;-78
2021/03/14 06:18:29;;;;;;;;;;;15.10;99.90;;;;;;4992535;28;20369;-78
2021/03/14 06:20:56;;;;;;;;;;;15.20;99.90;;;;;;4991552;28;19914;-79
2021/03/14 06:23:23;;;;;;;;;;;15.20;99.90;;;;;;4992220;28;19921;-80
2021/03/14 06:25:52;;;;;;;;;;;15.20;99.90;;;;;;4991682;28;19910;-81
2021/03/14 06:28:51;;;;;;;;;;;15.20;99.90;;;;;;4972879;28;19956;-83
2021/03/14 06:31:22;;;;;;;;;;;15.30;99.90;;;;;;4971289;28;19914;-81
2021/03/14 06:33:49;;;;;;;;;;;15.30;99.90;;;;;;4978992;28;19921;-77
2021/03/14 06:36:17;;;;;;;;;;;15.30;99.90;;;;;;4982438;28;19921;-78
2021/03/14 06:38:46;;;;;;;;;;;15.40;99.90;;;;;;4980386;28;19958;-78
2021/03/14 06:41:17;;;;;;;;;;;15.40;99.90;;;;;;4982013;28;20326;-81
2021/03/14 06:43:51;;;;;;;;;;;15.40;99.90;;;;;;4991000;28;19964;-81
2021/03/14 06:46:19;;;;;;;;;;;15.40;99.90;;;;;;4993089;28;19914;-82
2021/03/14 06:48:46;;;;;;;;;;;15.40;99.90;;;;;;4989837;28;20009;-82
2021/03/14 06:51:30;;;;;;;;;;;15.30;99.90;;;;;;4990204;28;19954;-80
2021/03/14 06:54:18;;;;;;;;;;;15.40;99.90;;;;;;4982204;28;19917;-82
2021/03/14 06:56:58;;;;;;;;;;;15.40;99.90;;;;;;4971794;28;19918;-86
2021/03/14 06:59:25;;;;;;;;;;;15.40;99.90;;;;;;4970007;28;19914;-85
2021/03/14 07:01:58;;;;;;;;;;;15.30;99.90;;;;;;4971564;28;19922;-78
2021/03/14 07:04:38;;;;;;;;;;;15.40;99.90;;;;;;4971885;28;20040;-84
2021/03/14 07:07:05;;;;;;;;;;;15.40;99.90;;;;;;4970134;28;19917;-79
2021/03/14 07:09:33;;;;;;;;;;;15.50;99.90;;;;;;4971725;28;19977;-82
2021/03/14 07:12:14;;;;;;;;;;;15.30;99.90;;;;;;4974380;28;20288;-85
2021/03/14 07:14:41;;;;;;;;;;;15.30;99.90;;;;;;4972607;28;20352;-81
2021/03/14 07:17:08;;;;;;;;;;;15.30;99.90;;;;;;4984511;28;19918;-83
2021/03/14 07:19:34;;;;;;;;;;;15.30;99.90;;;;;;4994931;28;19914;-79
2021/03/14 07:22:06;;;;;;;;;;;15.30;99.90;;;;;;4994083;28;19914;-82
2021/03/14 07:24:33;;;;;;;;;;;15.30;99.90;;;;;;4994821;28;20299;-84
2021/03/14 07:27:03;;;;;;;;;;;15.20;99.90;;;;;;4994898;28;19910;-87
2021/03/14 07:29:30;;;;;;;;;;;15.10;99.90;;;;;;4997649;28;20368;-84
2021/03/14 07:31:58;;;;;;;;;;;15.10;99.90;;;;;;4995448;28;20375;-82
2021/03/14 07:34:25;;;;;;;;;;;15.00;99.90;;;;;;4994763;28;19952;-78
2021/03/14 07:36:52;;;;;;;;;;;15.10;99.90;;;;;;4996780;28;19929;-81
2021/03/14 07:39:21;;;;;;;;;;;15.10;99.90;;;;;;5007000;28;20005;-79
2021/03/14 07:41:48;;;;;;;;;;;15.10;99.90;;;;;;5010477;28;19918;-79
2021/03/14 07:44:20;;;;;;;;;;;15.00;99.90;;;;;;4996087;28;19941;-80
2021/03/14 07:46:46;;;;;;;;;;;14.90;99.90;;;;;;4996115;28;19913;-79
2021/03/14 07:49:16;;;;;;;;;;;14.90;99.90;;;;;;4996499;28;20335;-82
2021/03/14 07:51:44;;;;;;;;;;;14.90;99.90;;;;;;4996547;28;20352;-83
2021/03/14 07:54:12;;;;;;;;;;;14.90;99.90;;;;;;4996689;28;19949;-86
2021/03/14 07:56:39;;;;;;;;;;;14.90;99.90;;;;;;4996235;28;19910;-84
2021/03/14 07:59:07;;;;;;;;;;;14.80;99.90;;;;;;4994757;28;20012;-78
2021/03/14 08:01:40;;;;;;;;;;;14.90;99.90;;;;;;4996658;28;19910;-78
2021/03/14 08:04:27;;;;;;;;;;;14.90;99.90;;;;;;4994710;28;19922;-79
2021/03/14 08:06:53;;;;;;;;;;;14.90;99.90;;;;;;4997021;28;19910;-78
2021/03/14 08:09:41;;;;;;;;;;;14.90;99.90;;;;;;4994067;28;19916;-78
2021/03/14 08:12:27;;;;;;;;;;;14.90;99.90;;;;;;4995162;28;19910;-83
2021/03/14 08:14:55;;;;;;;;;;;14.90;99.90;;;;;;4997232;28;19920;-81
2021/03/14 08:17:23;;;;;;;;;;;14.80;99.90;;;;;;4992056;28;19960;-83
2021/03/14 08:19:51;;;;;;;;;;;14.80;99.90;;;;;;4980297;28;19916;-83
2021/03/14 08:22:38;;;;;;;;;;;14.80;99.90;;;;;;4993382;28;20430;-86
2021/03/14 08:25:18;;;;;;;;;;;14.90;99.90;;;;;;4999268;28;20001;-88
2021/03/14 08:27:48;;;;;;;;;;;14.80;99.90;;;;;;4999469;28;20360;-87
2021/03/14 08:30:30;;;;;;;;;;;14.80;99.90;;;;;;5001995;28;20303;-87
2021/03/14 08:33:14;;;;;;;;;;;14.80;99.90;;;;;;5018330;28;19921;-85
2021/03/14 08:35:52;;;;;;;;;;;14.80;99.90;;;;;;5004414;28;19925;-82
2021/03/14 08:38:25;;;;;;;;;;;14.70;99.90;;;;;;5002303;28;19909;-85
2021/03/14 08:41:11;;;;;;;;;;;14.70;99.90;;;;;;5016700;28;19914;-85
2021/03/14 08:43:42;;;;;;;;;;;14.70;99.90;;;;;;4989489;28;19929;-87
2021/03/14 08:46:09;;;;;;;;;;;14.60;99.90;;;;;;4980668;28;19983;-87
2021/03/14 08:48:37;;;;;;;;;;;14.70;99.90;;;;;;4994381;28;20260;-82
2021/03/14 08:51:09;;;;;;;;;;;14.70;99.90;;;;;;4995690;28;19921;-78
2021/03/14 08:53:37;;;;;;;;;;;14.70;99.90;;;;;;4977714;28;19941;-79
2021/03/14 08:56:04;;;;;;;;;;;14.70;99.90;;;;;;4977526;28;19925;-81
2021/03/14 08:58:31;;;;;;;;;;;14.80;99.90;;;;;;4976008;28;19914;-85
2021/03/14 09:01:03;;;;;;;;;;;14.70;99.90;;;;;;4976199;28;19911;-82
2021/03/14 09:03:30;;;;;;;;;;;14.60;99.90;;;;;;4975879;28;19918;-87
2021/03/14 09:06:14;;;;;;;;;;;14.70;99.90;;;;;;4975744;28;19960;-83
2021/03/14 09:09:01;;;;;;;;;;;14.70;99.90;;;;;;4990650;28;19917;-90
2021/03/14 09:11:43;;;;;;;;;;;14.70;99.90;;;;;;4995502;28;19910;-83
2021/03/14 09:14:18;;;;;;;;;;;14.70;99.90;;;;;;4995447;28;19964;-84
2021/03/14 09:16:45;;;;;;;;;;;14.70;99.90;;;;;;4995150;28;20348;-86
2021/03/14 09:19:20;;;;;;;;;;;14.70;99.90;;;;;;5000284;28;19910;-79
2021/03/14 09:21:47;;;;;;;;;;;14.80;99.90;;;;;;4992912;28;19925;-78
2021/03/14 09:24:41;;;;;;;;;;;14.90;99.90;;;;;;4999576;28;19918;-82
2021/03/14 09:27:08;;;;;;;;;;;14.90;99.90;;;;;;4995657;28;19916;-80
2021/03/14 09:29:35;;;;;;;;;;;15.00;99.90;;;;;;4995289;28;19918;-77
2021/03/14 09:32:03;;;;;;;;;;;15.00;99.90;;;;;;4993649;28;19949;-76
2021/03/14 09:34:30;;;;;;;;;;;15.00;99.90;;;;;;4993625;28;19984;-82
2021/03/14 09:36:58;;;;;;;;;;;15.00;99.90;;;;;;4991992;28;19928;-79
2021/03/14 09:39:25;;;;;;;;;;;14.90;99.90;;;;;;4990653;28;19979;-81
2021/03/14 09:41:52;;;;;;;;;;;15.10;99.90;;;;;;4977568;28;19940;-81
2021/03/14 09:44:19;;;;;;;;;;;15.00;99.90;;;;;;4993253;28;19921;-85
2021/03/14 09:46:56;;;;;;;;;;;15.10;99.90;;;;;;4992544;28;20324;-81
2021/03/14 09:49:23;;;;;;;;;;;15.10;99.90;;;;;;4993495;28;19921;-85
2021/03/14 09:51:50;;;;;;;;;;;15.10;99.90;;;;;;4988124;28;20000;-85
2021/03/14 09:54:17;;;;;;;;;;;15.00;99.90;;;;;;4983128;28;19914;-86
2021/03/14 09:56:53;;;;;;;;;;;15.00;99.90;;;;;;4989037;28;19958;-82
2021/03/14 09:59:26;;;;;;;;;;;15.10;99.90;;;;;;4983135;28;19910;-82
2021/03/14 10:01:55;;;;;;;;;;;15.10;99.90;;;;;;4980662;28;19914;-80
2021/03/14 10:04:22;;;;;;;;;;;15.10;99.90;;;;;;4985086;28;20013;-80
2021/03/14 10:06:49;;;;;;;;;;;15.10;99.90;;;;;;4966358;28;19918;-84
2021/03/14 10:09:21;;;;;;;;;;;15.20;99.90;;;;;;4981147;28;19928;-81
2021/03/14 10:11:49;;;;;;;;;;;15.20;99.90;;;;;;4983520;28;19944;-81
2021/03/14 10:14:17;;;;;;;;;;;15.20;99.90;;;;;;4971861;28;19910;-84
2021/03/14 10:16:44;;;;;;;;;;;15.20;99.90;;;;;;4979530;28;20269;-83
2021/03/14 10:19:11;;;;;;;;;;;15.20;99.90;;;;;;4986516;28;19937;-82
2021/03/14 10:21:43;;;;;;;;;;;15.20;99.90;;;;;;4984694;28;19921;-84
2021/03/14 10:24:35;;;;;;;;;;;15.20;99.90;;;;;;4987541;28;20296;-83
2021/03/14 10:27:03;;;;;;;;;;;15.20;99.90;;;;;;4991143;28;20272;-81
2021/03/14 10:29:34;;;;;;;;;;;15.20;99.90;;;;;;4993462;28;19932;-85
2021/03/14 10:32:01;;;;;;;;;;;15.20;99.90;;;;;;4993180;28;19961;-84
2021/03/14 10:34:28;;;;;;;;;;;15.30;99.90;;;;;;4992810;28;19909;-83
2021/03/14 10:36:55;;;;;;;;;;;15.30;99.90;;;;;;4994020;28;19922;-82
2021/03/14 10:39:26;;;;;;;;;;;15.30;99.90;;;;;;4993873;28;19922;-85
2021/03/14 10:41:53;;;;;;;;;;;15.30;99.90;;;;;;4985664;28;20039;-83
2021/03/14 10:44:21;;;;;;;;;;;15.30;99.90;;;;;;4986277;28;19984;-78
2021/03/14 10:46:51;;;;;;;;;;;15.40;99.90;;;;;;4982260;28;19910;-81
2021/03/14 10:49:24;;;;;;;;;;;15.40;99.90;;;;;;4976200;28;19910;-79
2021/03/14 10:51:52;;;;;;;;;;;15.40;99.90;;;;;;4989787;28;19957;-85
2021/03/14 10:54:19;;;;;;;;;;;15.40;99.90;;;;;;4994349;28;19914;-79
2021/03/14 10:56:47;;;;;;;;;;;15.40;99.90;;;;;;4989437;28;19942;-77
2021/03/14 10:59:22;;;;;;;;;;;15.50;99.90;;;;;;4996395;28;20435;-81
2021/03/14 11:01:54;;;;;;;;;;;15.50;99.90;;;;;;4983695;28;19913;-83
2021/03/14 11:04:28;;;;;;;;;;;15.50;99.90;;;;;;4996950;28;19972;-78
2021/03/14 11:06:55;;;;;;;;;;;15.40;99.90;;;;;;4996625;28;19997;-78
2021/03/14 11:09:23;;;;;;;;;;;15.40;99.90;;;;;;4997126;28;20291;-78
2021/03/14 11:11:52;;;;;;;;;;;15.40;99.90;;;;;;4998459;28;19921;-80
2021/03/14 11:14:25;;;;;;;;;;;15.40;99.90;;;;;;4998881;28;19937;-79
2021/03/14 11:17:04;;;;;;;;;;;15.40;99.90;;;;;;5000032;28;19917;-83
2021/03/14 11:19:31;;;;;;;;;;;15.40;99.90;;;;;;4999835;28;20398;-81
2021/03/14 11:21:57;;;;;;;;;;;15.30;99.90;;;;;;4994392;28;19914;-80
2021/03/14 11:24:24;;;;;;;;;;;15.30;99.90;;;;;;4994784;28;20434;-81
2021/03/14 11:26:51;;;;;;;;;;;15.30;99.90;;;;;;4996622;28;19910;-84
2021/03/14 11:29:17;;;;;;;;;;;15.30;99.90;;;;;;4996042;28;20349;-81
2021/03/14 11:31:44;;;;;;;;;;;15.30;99.90;;;;;;4994973;28;20299;-83
2021/03/14 11:34:11;;;;;;;;;;;15.30;99.90;;;;;;4996313;28;19957;-82
2021/03/14 11:36:37;;;;;;;;;;;15.30;99.90;;;;;;4995747;28;19918;-82
2021/03/14 11:39:04;;;;;;;;;;;15.30;99.90;;;;;;4996098;28;20026;-83
2021/03/14 11:41:32;;;;;;;;;;;15.30;99.90;;;;;;4996557;28;19936;-83
2021/03/14 11:43:59;;;;;;;;;;;15.30;99.90;;;;;;4995647;28;19992;-81
2021/03/14 11:46:26;;;;;;;;;;;15.30;99.90;;;;;;4995374;28;19918;-81
2021/03/14 11:48:53;;;;;;;;;;;15.30;99.90;;;;;;4998554;28;19958;-83
2021/03/14 11:51:20;;;;;;;;;;;15.30;99.90;;;;;;4995270;28;20379;-82
2021/03/14 11:53:47;;;;;;;;;;;15.30;99.90;;;;;;4995933;28;20000;-81
2021/03/14 11:56:14;;;;;;;;;;;15.30;99.90;;;;;;4994755;28;19922;-83
2021/03/14 11:58:41;;;;;;;;;;;15.40;99.90;;;;;;5009537;28;19913;-83
2021/03/14 12:01:07;;;;;;;;;;;15.30;99.90;;;;;;4995861;28;20008;-83
2021/03/14 12:03:37;;;;;;;;;;;15.30;99.90;;;;;;4995561;28;19921;-83
2021/03/14 12:06:05;;;;;;;;;;;15.30;99.90;;;;;;4995722;28;19996;-82
2021/03/14 12:08:31;;;;;;;;;;;15.30;99.90;;;;;;4996804;28;19933;-82
2021/03/14 12:11:03;;;;;;;;;;;15.30;99.90;;;;;;4996214;28;19921;-82
2021/03/14 12:13:30;;;;;;;;;;;15.30;99.90;;;;;;4995228;28;19950;-82
2021/03/14 12:15:56;;;;;;;;;;;15.40;99.90;;;;;;4995521;28;19925;-82
2021/03/14 12:18:26;;;;;;;;;;;15.40;99.90;;;;;;4995641;28;19932;-83
2021/03/14 12:20:53;;;;;;;;;;;15.40;99.90;;;;;;4994859;28;19921;-81
2021/03/14 12:23:20;;;;;;;;;;;15.40;99.90;;;;;;4995070;28;20281;-80
2021/03/14 12:25:46;;;;;;;;;;;15.40;99.90;;;;;;4995584;28;20023;-83
2021/03/14 12:28:13;;;;;;;;;;;15.30;99.90;;;;;;5020411;28;20419;-83
2021/03/14 12:30:40;;;;;;;;;;;15.30;99.90;;;;;;4993279;28;20013;-84
2021/03/14 12:33:07;;;;;;;;;;;15.30;99.90;;;;;;4994150;28;20000;-82
2021/03/14 12:35:35;;;;;;;;;;;15.30;99.90;;;;;;4995377;28;19917;-81
2021/03/14 12:38:02;;;;;;;;;;;15.30;99.90;;;;;;4995398;28;19910;-79
2021/03/14 12:40:30;;;;;;;;;;;15.30;99.90;;;;;;4983655;28;20408;-81
2021/03/14 12:43:00;;;;;;;;;;;15.10;99.90;;;;;;4975512;28;19915;-80
2021/03/14 12:45:27;;;;;;;;;;;15.10;99.90;;;;;;4990519;28;19980;-81
2021/03/14 12:47:53;;;;;;;;;;;15.10;99.90;;;;;;4983668;28;19969;-80
2021/03/14 12:50:22;;;;;;;;;;;15.00;99.90;;;;;;4994618;28;19917;-81
2021/03/14 12:52:48;;;;;;;;;;;15.00;99.90;;;;;;4977460;28;19961;-78
2021/03/14 12:55:15;;;;;;;;;;;15.00;99.90;;;;;;5010075;28;20288;-82
2021/03/14 12:57:42;;;;;;;;;;;15.00;99.90;;;;;;4994943;28;20354;-79
2021/03/14 13:00:09;;;;;;;;;;;14.90;99.90;;;;;;4994523;28;19993;-79
2021/03/14 13:02:39;;;;;;;;;;;14.90;99.90;;;;;;4994536;28;20291;-79
2021/03/14 13:05:06;;;;;;;;;;;14.80;99.90;;;;;;4994700;28;19921;-80
2021/03/14 13:07:33;;;;;;;;;;;14.80;99.90;;;;;;4994646;28;19922;-82
2021/03/14 13:10:00;;;;;;;;;;;14.80;99.90;;;;;;4992306;28;19909;-84
2021/03/14 13:12:27;;;;;;;;;;;14.70;99.90;;;;;;4991554;28;19950;-82
2021/03/14 13:14:54;;;;;;;;;;;14.70;99.90;;;;;;4984509;28;20163;-80
2021/03/14 13:17:20;;;;;;;;;;;14.70;99.90;;;;;;4993317;28;20258;-82
2021/03/14 13:19:47;;;;;;;;;;;14.70;99.90;;;;;;4993123;28;20000;-83
2021/03/14 13:22:16;;;;;;;;;;;14.70;99.90;;;;;;4992145;28;20266;-83
2021/03/14 13:24:43;;;;;;;;;;;14.70;99.90;;;;;;4994430;28;19918;-82
2021/03/14 13:27:10;;;;;;;;;;;14.70;99.90;;;;;;4993044;28;19965;-81
2021/03/14 13:29:38;;;;;;;;;;;14.90;99.90;;;;;;4976604;28;19924;-84
2021/03/14 13:32:05;;;;;;;;;;;14.90;99.90;;;;;;4992200;28;19993;-81
2021/03/14 13:34:31;;;;;;;;;;;14.90;99.90;;;;;;4992918;28;19910;-81
2021/03/14 13:37:01;;;;;;;;;;;14.90;99.90;;;;;;4994198;28;19928;-82
2021/03/14 13:39:28;;;;;;;;;;;14.90;99.90;;;;;;4994332;28;20317;-85
2021/03/14 13:41:54;;;;;;;;;;;14.90;99.90;;;;;;4989299;28;20273;-80
2021/03/14 13:44:21;;;;;;;;;;;15.00;99.90;;;;;;4972981;28;19918;-83
2021/03/14 13:46:48;;;;;;;;;;;14.90;99.90;;;;;;4973303;28;20340;-83
2021/03/14 13:49:14;;;;;;;;;;;14.80;99.90;;;;;;4973428;28;20273;-79
2021/03/14 13:51:41;;;;;;;;;;;14.70;99.90;;;;;;4974210;28;20041;-80
2021/03/14 13:54:08;;;;;;;;;;;14.70;99.90;;;;;;4975298;28;19917;-79
2021/03/14 13:56:34;;;;;;;;;;;14.70;99.90;;;;;;4974224;28;20424;-84
2021/03/14 13:59:02;;;;;;;;;;;14.70;99.90;;;;;;4975018;28;19911;-79
2021/03/14 14:01:30;;;;;;;;;;;14.70;99.90;;;;;;4973865;28;19910;-83
2021/03/14 14:03:57;;;;;;;;;;;14.70;99.90;;;;;;4974277;28;19919;-81
2021/03/14 14:06:23;;;;;;;;;;;14.80;99.90;;;;;;4974005;28;20373;-84
2021/03/14 14:08:50;;;;;;;;;;;14.70;99.90;;;;;;4972598;28;19917;-81
2021/03/14 14:11:17;;;;;;;;;;;14.70;99.90;;;;;;4974395;28;19914;-81
2021/03/14 14:13:46;;;;;;;;;;;14.70;99.90;;;;;;4974118;28;19914;-81
2021/03/14 14:16:13;;;;;;;;;;;14.80;99.90;;;;;;4974046;28;20009;-84
2021/03/14 14:18:40;;;;;;;;;;;14.80;99.90;;;;;;4974333;28;19917;-83
2021/03/14 14:21:07;;;;;;;;;;;14.80;99.90;;;;;;4974675;28;20021;-81
2021/03/14 14:23:34;;;;;;;;;;;14.80;99.90;;;;;;4978295;28;19918;-85
2021/03/14 14:26:01;;;;;;;;;;;14.80;99.90;;;;;;4978218;28;19914;-84